sensor_id;sensor_type;location;lat;lon;timestamp;pressure;altitude;pressure_sealevel;temperature;humidity
68994;BME280;56054;50.968;5.816;2023-03-03T00:00:23;101435.72;;;2.14;100.00
68994;BME280;56054;50.968;5.816;2023-03-03T00:03:30;101444.34;;;2.15;100.00
68994;BME280;56054;50.968;5.816;2023-03-03T00:06:52;101445.81;;;1.97;100.00
68994;BME280;56054;50.968;5.816;2023-03-03T00:09:59;101442.75;;;1.92;100.00
68994;BME280;56054;50.968;5.816;2023-03-03T00:13:26;101443.50;;;1.76;100.00
68994;BME280;56054;50.968;5.816;2023-03-03T00:16:40;101442.47;;;1.66;100.00
68994;BME280;56054;50.968;5.816;2023-03-03T00:19:50;101452.94;;;1.61;100.00
68994;BME280;56054;50.968;5.816;2023-03-03T00:23:36;101448.50;;;1.67;100.00
68994;BME280;56054;50.968;5.816;2023-03-03T00:26:46;101439.09;;;1.75;100.00
68994;BME280;56054;50.968;5.816;2023-03-03T00:30:24;101443.38;;;1.67;100.00
68994;BME280;56054;50.968;5.816;2023-03-03T00:33:46;101448.84;;;1.70;100.00
68994;BME280;56054;50.968;5.816;2023-03-03T00:37:00;101439.72;;;1.49;100.00
68994;BME280;56054;50.968;5.816;2023-03-03T00:40:46;101452.63;;;1.58;100.00
68994;BME280;56054;50.968;5.816;2023-03-03T00:43:53;101444.81;;;1.72;100.00
68994;BME280;56054;50.968;5.816;2023-03-03T00:47:27;101446.53;;;1.41;100.00
68994;BME280;56054;50.968;5.816;2023-03-03T00:50:38;101452.66;;;1.35;100.00
68994;BME280;56054;50.968;5.816;2023-03-03T00:53:46;101450.59;;;1.39;100.00
68994;BME280;56054;50.968;5.816;2023-03-03T00:56:53;101452.34;;;1.47;100.00
68994;BME280;56054;50.968;5.816;2023-03-03T01:00:25;101468.19;;;1.13;100.00
68994;BME280;56054;50.968;5.816;2023-03-03T01:03:33;101457.34;;;1.39;100.00
68994;BME280;56054;50.968;5.816;2023-03-03T01:06:40;101462.16;;;1.36;100.00
68994;BME280;56054;50.968;5.816;2023-03-03T01:09:51;101453.88;;;1.38;100.00
68994;BME280;56054;50.968;5.816;2023-03-03T01:12:58;101457.41;;;1.32;100.00
68994;BME280;56054;50.968;5.816;2023-03-03T01:16:05;101467.22;;;1.20;100.00
68994;BME280;56054;50.968;5.816;2023-03-03T01:19:16;101463.72;;;1.19;100.00
68994;BME280;56054;50.968;5.816;2023-03-03T01:22:24;101475.53;;;1.10;100.00
68994;BME280;56054;50.968;5.816;2023-03-03T01:25:31;101462.16;;;1.13;100.00
68994;BME280;56054;50.968;5.816;2023-03-03T01:28:39;101473.13;;;1.12;100.00
68994;BME280;56054;50.968;5.816;2023-03-03T01:31:51;101470.97;;;1.08;100.00
68994;BME280;56054;50.968;5.816;2023-03-03T01:34:58;101468.66;;;0.95;100.00
68994;BME280;56054;50.968;5.816;2023-03-03T01:38:37;101472.84;;;1.01;100.00
68994;BME280;56054;50.968;5.816;2023-03-03T01:41:45;101475.09;;;0.91;100.00
68994;BME280;56054;50.968;5.816;2023-03-03T01:45:19;101486.28;;;0.84;100.00
68994;BME280;56054;50.968;5.816;2023-03-03T01:48:33;101492.22;;;0.69;100.00
68994;BME280;56054;50.968;5.816;2023-03-03T01:51:49;101491.47;;;0.70;100.00
68994;BME280;56054;50.968;5.816;2023-03-03T01:55:13;101491.84;;;0.73;100.00
68994;BME280;56054;50.968;5.816;2023-03-03T01:58:28;101491.66;;;0.72;100.00
68994;BME280;56054;50.968;5.816;2023-03-03T02:01:41;101486.75;;;0.66;100.00
68994;BME280;56054;50.968;5.816;2023-03-03T02:04:48;101488.47;;;0.89;100.00
68994;BME280;56054;50.968;5.816;2023-03-03T02:08:00;101483.81;;;1.00;100.00
68994;BME280;56054;50.968;5.816;2023-03-03T02:11:10;101486.75;;;0.96;100.00
68994;BME280;56054;50.968;5.816;2023-03-03T02:14:18;101481.66;;;0.66;100.00
68994;BME280;56054;50.968;5.816;2023-03-03T02:17:25;101492.56;;;0.72;100.00
68994;BME280;56054;50.968;5.816;2023-03-03T02:21:01;101492.25;;;0.62;100.00
68994;BME280;56054;50.968;5.816;2023-03-03T02:24:21;101493.56;;;0.51;100.00
68994;BME280;56054;50.968;5.816;2023-03-03T02:27:35;101493.41;;;0.50;100.00
68994;BME280;56054;50.968;5.816;2023-03-03T02:30:43;101492.47;;;0.56;100.00
68994;BME280;56054;50.968;5.816;2023-03-03T02:33:55;101493.22;;;0.85;100.00
68994;BME280;56054;50.968;5.816;2023-03-03T02:37:02;101491.50;;;1.00;100.00
68994;BME280;56054;50.968;5.816;2023-03-03T02:40:11;101500.72;;;0.84;100.00
68994;BME280;56054;50.968;5.816;2023-03-03T02:43:22;101500.22;;;0.72;100.00
68994;BME280;56054;50.968;5.816;2023-03-03T02:46:55;101499.44;;;0.80;100.00
68994;BME280;56054;50.968;5.816;2023-03-03T02:50:04;101504.09;;;0.69;100.00
68994;BME280;56054;50.968;5.816;2023-03-03T02:53:11;101506.25;;;0.73;100.00
68994;BME280;56054;50.968;5.816;2023-03-03T02:56:18;101496.03;;;0.73;100.00
68994;BME280;56054;50.968;5.816;2023-03-03T02:59:31;101501.66;;;0.77;100.00
68994;BME280;56054;50.968;5.816;2023-03-03T03:02:50;101505.34;;;0.72;100.00
68994;BME280;56054;50.968;5.816;2023-03-03T03:06:06;101503.78;;;0.51;100.00
68994;BME280;56054;50.968;5.816;2023-03-03T03:09:15;101503.91;;;0.67;100.00
68994;BME280;56054;50.968;5.816;2023-03-03T03:12:25;101508.72;;;0.57;100.00
68994;BME280;56054;50.968;5.816;2023-03-03T03:15:34;101513.13;;;0.43;100.00
68994;BME280;56054;50.968;5.816;2023-03-03T03:18:41;101513.56;;;0.32;100.00
68994;BME280;56054;50.968;5.816;2023-03-03T03:21:55;101501.09;;;0.42;100.00
68994;BME280;56054;50.968;5.816;2023-03-03T03:25:03;101514.44;;;0.40;100.00
68994;BME280;56054;50.968;5.816;2023-03-03T03:28:12;101515.53;;;0.42;100.00
68994;BME280;56054;50.968;5.816;2023-03-03T03:31:21;101509.16;;;0.38;100.00
68994;BME280;56054;50.968;5.816;2023-03-03T03:34:28;101509.13;;;0.46;100.00
68994;BME280;56054;50.968;5.816;2023-03-03T03:37:35;101506.59;;;0.38;100.00
68994;BME280;56054;50.968;5.816;2023-03-03T03:41:08;101511.34;;;0.35;100.00
68994;BME280;56054;50.968;5.816;2023-03-03T03:44:16;101521.22;;;0.32;100.00
68994;BME280;56054;50.968;5.816;2023-03-03T03:47:23;101515.03;;;0.30;100.00
68994;BME280;56054;50.968;5.816;2023-03-03T03:50:32;101502.44;;;0.32;100.00
68994;BME280;56054;50.968;5.816;2023-03-03T03:53:41;101508.81;;;0.28;100.00
68994;BME280;56054;50.968;5.816;2023-03-03T03:56:48;101517.78;;;0.25;100.00
68994;BME280;56054;50.968;5.816;2023-03-03T03:59:56;101514.28;;;0.24;100.00
68994;BME280;56054;50.968;5.816;2023-03-03T04:03:15;101523.59;;;0.31;100.00
68994;BME280;56054;50.968;5.816;2023-03-03T04:06:23;101515.69;;;0.43;100.00
68994;BME280;56054;50.968;5.816;2023-03-03T04:09:30;101518.47;;;0.31;100.00
68994;BME280;56054;50.968;5.816;2023-03-03T04:12:37;101514.84;;;0.29;100.00
68994;BME280;56054;50.968;5.816;2023-03-03T04:15:47;101518.50;;;0.24;100.00
68994;BME280;56054;50.968;5.816;2023-03-03T04:18:56;101514.28;;;0.31;100.00
68994;BME280;56054;50.968;5.816;2023-03-03T04:22:05;101515.22;;;0.32;100.00
68994;BME280;56054;50.968;5.816;2023-03-03T04:25:14;101527.03;;;0.38;100.00
68994;BME280;56054;50.968;5.816;2023-03-03T04:28:23;101532.91;;;0.37;100.00
68994;BME280;56054;50.968;5.816;2023-03-03T04:31:31;101518.69;;;0.32;100.00
68994;BME280;56054;50.968;5.816;2023-03-03T04:34:41;101521.94;;;0.31;100.00
68994;BME280;56054;50.968;5.816;2023-03-03T04:37:48;101532.53;;;0.41;100.00
68994;BME280;56054;50.968;5.816;2023-03-03T04:40:56;101532.00;;;0.37;100.00
68994;BME280;56054;50.968;5.816;2023-03-03T04:44:10;101535.09;;;0.41;100.00
68994;BME280;56054;50.968;5.816;2023-03-03T04:47:22;101536.72;;;0.34;100.00
68994;BME280;56054;50.968;5.816;2023-03-03T04:50:29;101531.22;;;0.45;100.00
68994;BME280;56054;50.968;5.816;2023-03-03T04:54:00;101546.53;;;0.59;100.00
68994;BME280;56054;50.968;5.816;2023-03-03T04:57:11;101543.03;;;0.66;100.00
68994;BME280;56054;50.968;5.816;2023-03-03T05:00:19;101542.38;;;0.38;100.00
68994;BME280;56054;50.968;5.816;2023-03-03T05:03:26;101553.50;;;0.46;100.00
68994;BME280;56054;50.968;5.816;2023-03-03T05:06:40;101552.91;;;0.56;100.00
68994;BME280;56054;50.968;5.816;2023-03-03T05:09:50;101556.25;;;0.40;100.00
68994;BME280;56054;50.968;5.816;2023-03-03T05:13:00;101558.81;;;0.40;100.00
68994;BME280;56054;50.968;5.816;2023-03-03T05:16:07;101560.03;;;0.51;100.00
68994;BME280;56054;50.968;5.816;2023-03-03T05:19:15;101562.59;;;0.51;100.00
68994;BME280;56054;50.968;5.816;2023-03-03T05:22:23;101565.72;;;0.49;100.00
68994;BME280;56054;50.968;5.816;2023-03-03T05:25:56;101548.78;;;0.42;100.00
68994;BME280;56054;50.968;5.816;2023-03-03T05:29:05;101555.34;;;0.47;100.00
68994;BME280;56054;50.968;5.816;2023-03-03T05:32:12;101557.72;;;0.38;100.00
68994;BME280;56054;50.968;5.816;2023-03-03T05:35:19;101557.72;;;0.38;100.00
68994;BME280;56054;50.968;5.816;2023-03-03T05:38:26;101555.69;;;0.43;100.00
68994;BME280;56054;50.968;5.816;2023-03-03T05:41:33;101569.38;;;0.43;100.00
68994;BME280;56054;50.968;5.816;2023-03-03T05:44:40;101562.81;;;0.46;100.00
68994;BME280;56054;50.968;5.816;2023-03-03T05:47:47;101559.69;;;0.48;100.00
68994;BME280;56054;50.968;5.816;2023-03-03T05:50:57;101560.59;;;0.56;100.00
68994;BME280;56054;50.968;5.816;2023-03-03T05:54:06;101567.03;;;0.38;100.00
68994;BME280;56054;50.968;5.816;2023-03-03T05:57:13;101566.84;;;0.43;100.00
68994;BME280;56054;50.968;5.816;2023-03-03T06:00:20;101566.50;;;0.40;100.00
68994;BME280;56054;50.968;5.816;2023-03-03T06:03:28;101569.94;;;0.48;100.00
68994;BME280;56054;50.968;5.816;2023-03-03T06:07:01;101573.22;;;0.47;100.00
68994;BME280;56054;50.968;5.816;2023-03-03T06:10:08;101580.91;;;0.40;100.00
68994;BME280;56054;50.968;5.816;2023-03-03T06:13:20;101586.56;;;0.45;100.00
68994;BME280;56054;50.968;5.816;2023-03-03T06:16:31;101581.78;;;0.55;100.00
68994;BME280;56054;50.968;5.816;2023-03-03T06:19:38;101574.38;;;0.35;100.00
68994;BME280;56054;50.968;5.816;2023-03-03T06:23:17;101585.50;;;0.28;100.00
68994;BME280;56054;50.968;5.816;2023-03-03T06:26:24;101584.25;;;0.25;100.00
68994;BME280;56054;50.968;5.816;2023-03-03T06:29:31;101585.13;;;0.39;100.00
68994;BME280;56054;50.968;5.816;2023-03-03T06:32:39;101596.47;;;0.34;100.00
68994;BME280;56054;50.968;5.816;2023-03-03T06:35:51;101596.34;;;0.70;100.00
68994;BME280;56054;50.968;5.816;2023-03-03T06:38:58;101591.09;;;0.61;100.00
68994;BME280;56054;50.968;5.816;2023-03-03T06:42:05;101603.38;;;0.50;100.00
68994;BME280;56054;50.968;5.816;2023-03-03T06:45:13;101594.56;;;0.55;100.00
68994;BME280;56054;50.968;5.816;2023-03-03T06:48:20;101599.34;;;0.45;100.00
68994;BME280;56054;50.968;5.816;2023-03-03T06:51:36;101601.19;;;0.38;100.00
68994;BME280;56054;50.968;5.816;2023-03-03T06:54:44;101610.16;;;0.35;100.00
68994;BME280;56054;50.968;5.816;2023-03-03T06:57:51;101615.06;;;0.40;100.00
68994;BME280;56054;50.968;5.816;2023-03-03T07:01:01;101627.16;;;0.34;100.00
68994;BME280;56054;50.968;5.816;2023-03-03T07:04:21;101635.19;;;0.16;100.00
68994;BME280;56054;50.968;5.816;2023-03-03T07:07:30;101632.97;;;0.19;100.00
68994;BME280;56054;50.968;5.816;2023-03-03T07:10:41;101643.94;;;0.25;100.00
68994;BME280;56054;50.968;5.816;2023-03-03T07:13:54;101639.94;;;0.27;100.00
68994;BME280;56054;50.968;5.816;2023-03-03T07:17:04;101648.31;;;0.26;100.00
68994;BME280;56054;50.968;5.816;2023-03-03T07:20:20;101648.72;;;0.15;100.00
68994;BME280;56054;50.968;5.816;2023-03-03T07:23:38;101654.53;;;0.14;100.00
68994;BME280;56054;50.968;5.816;2023-03-03T07:26:46;101660.19;;;0.18;100.00
68994;BME280;56054;50.968;5.816;2023-03-03T07:30:16;101659.28;;;0.04;100.00
68994;BME280;56054;50.968;5.816;2023-03-03T07:33:47;101669.66;;;0.19;100.00
68994;BME280;56054;50.968;5.816;2023-03-03T07:36:58;101665.50;;;0.13;100.00
68994;BME280;56054;50.968;5.816;2023-03-03T07:40:34;101677.19;;;0.18;100.00
68994;BME280;56054;50.968;5.816;2023-03-03T07:44:05;101673.72;;;0.17;100.00
68994;BME280;56054;50.968;5.816;2023-03-03T07:47:30;101670.97;;;0.37;100.00
68994;BME280;56054;50.968;5.816;2023-03-03T07:50:39;101683.41;;;0.20;100.00
68994;BME280;56054;50.968;5.816;2023-03-03T07:53:47;101685.75;;;0.26;100.00
68994;BME280;56054;50.968;5.816;2023-03-03T07:56:58;101684.84;;;0.25;100.00
68994;BME280;56054;50.968;5.816;2023-03-03T08:03:50;101699.78;;;0.36;100.00
68994;BME280;56054;50.968;5.816;2023-03-03T08:07:13;101697.63;;;0.39;100.00
68994;BME280;56054;50.968;5.816;2023-03-03T08:10:34;101700.19;;;0.32;100.00
68994;BME280;56054;50.968;5.816;2023-03-03T08:13:46;101696.34;;;0.21;100.00
68994;BME280;56054;50.968;5.816;2023-03-03T08:16:54;101699.63;;;0.35;100.00
68994;BME280;56054;50.968;5.816;2023-03-03T08:20:50;101705.31;;;0.32;100.00
68994;BME280;56054;50.968;5.816;2023-03-03T08:23:37;101716.97;;;0.30;100.00
68994;BME280;56054;50.968;5.816;2023-03-03T08:26:44;101706.75;;;0.23;100.00
68994;BME280;56054;50.968;5.816;2023-03-03T08:29:51;101719.72;;;0.32;100.00
68994;BME280;56054;50.968;5.816;2023-03-03T08:33:00;101725.00;;;0.48;100.00
68994;BME280;56054;50.968;5.816;2023-03-03T08:36:07;101730.13;;;0.40;100.00
68994;BME280;56054;50.968;5.816;2023-03-03T08:39:53;101719.53;;;0.37;100.00
68994;BME280;56054;50.968;5.816;2023-03-03T08:43:00;101724.09;;;0.40;100.00
68994;BME280;56054;50.968;5.816;2023-03-03T08:46:11;101728.66;;;0.35;100.00
68994;BME280;56054;50.968;5.816;2023-03-03T08:49:32;101738.53;;;0.39;100.00
68994;BME280;56054;50.968;5.816;2023-03-03T08:53:30;101731.22;;;0.21;100.00
68994;BME280;56054;50.968;5.816;2023-03-03T08:56:37;101740.69;;;0.36;100.00
68994;BME280;56054;50.968;5.816;2023-03-03T08:59:44;101743.25;;;0.36;100.00
68994;BME280;56054;50.968;5.816;2023-03-03T09:02:52;101746.22;;;0.39;100.00
68994;BME280;56054;50.968;5.816;2023-03-03T09:06:26;101750.03;;;0.43;100.00
68994;BME280;56054;50.968;5.816;2023-03-03T09:09:34;101758.59;;;0.51;100.00
68994;BME280;56054;50.968;5.816;2023-03-03T09:13:16;101755.16;;;0.57;100.00
68994;BME280;56054;50.968;5.816;2023-03-03T09:20:59;101762.81;;;0.43;100.00
68994;BME280;56054;50.968;5.816;2023-03-03T09:24:36;101762.06;;;0.51;100.00
68994;BME280;56054;50.968;5.816;2023-03-03T09:27:43;101768.84;;;0.65;100.00
68994;BME280;56054;50.968;5.816;2023-03-03T09:31:12;101762.28;;;0.60;100.00
68994;BME280;56054;50.968;5.816;2023-03-03T09:38:09;101766.63;;;0.68;100.00
68994;BME280;56054;50.968;5.816;2023-03-03T10:05:26;101769.38;;;0.91;100.00
68994;BME280;56054;50.968;5.816;2023-03-03T10:19:37;101782.13;;;1.13;100.00
68994;BME280;56054;50.968;5.816;2023-03-03T10:22:59;101777.56;;;1.10;100.00
68994;BME280;56054;50.968;5.816;2023-03-03T10:44:22;101791.53;;;1.49;100.00
68994;BME280;56054;50.968;5.816;2023-03-03T10:54:25;101799.75;;;1.54;100.00
68994;BME280;56054;50.968;5.816;2023-03-03T11:14:50;101791.06;;;1.68;100.00
68994;BME280;56054;50.968;5.816;2023-03-03T11:31:37;101776.22;;;2.10;100.00
68994;BME280;56054;50.968;5.816;2023-03-03T11:38:52;101780.84;;;2.05;100.00
68994;BME280;56054;50.968;5.816;2023-03-03T11:45:39;101770.94;;;2.31;100.00
68994;BME280;56054;50.968;5.816;2023-03-03T11:49:19;101778.75;;;2.17;100.00
68994;BME280;56054;50.968;5.816;2023-03-03T11:52:48;101777.38;;;2.28;100.00
68994;BME280;56054;50.968;5.816;2023-03-03T11:56:46;101778.91;;;2.19;100.00
68994;BME280;56054;50.968;5.816;2023-03-03T12:00:23;101780.84;;;2.28;100.00
68994;BME280;56054;50.968;5.816;2023-03-03T12:11:48;101774.44;;;2.32;100.00
68994;BME280;56054;50.968;5.816;2023-03-03T12:18:52;101763.59;;;2.57;100.00
68994;BME280;56054;50.968;5.816;2023-03-03T12:22:20;101760.97;;;2.65;100.00
68994;BME280;56054;50.968;5.816;2023-03-03T12:25:53;101763.06;;;2.53;100.00
68994;BME280;56054;50.968;5.816;2023-03-03T12:29:42;101751.84;;;2.60;100.00
68994;BME280;56054;50.968;5.816;2023-03-03T12:40:25;101751.59;;;2.65;100.00
68994;BME280;56054;50.968;5.816;2023-03-03T12:48:07;101748.88;;;2.64;100.00
68994;BME280;56054;50.968;5.816;2023-03-03T12:51:36;101737.66;;;2.86;100.00
68994;BME280;56054;50.968;5.816;2023-03-03T12:55:36;101745.38;;;2.86;100.00
68994;BME280;56054;50.968;5.816;2023-03-03T13:02:40;101729.81;;;3.00;100.00
68994;BME280;56054;50.968;5.816;2023-03-03T13:16:37;101736.88;;;3.10;100.00
68994;BME280;56054;50.968;5.816;2023-03-03T13:19:58;101738.75;;;3.04;100.00
68994;BME280;56054;50.968;5.816;2023-03-03T13:23:26;101733.13;;;2.99;100.00
68994;BME280;56054;50.968;5.816;2023-03-03T13:27:13;101737.44;;;3.08;100.00
68994;BME280;56054;50.968;5.816;2023-03-03T13:30:41;101742.50;;;3.15;100.00
68994;BME280;56054;50.968;5.816;2023-03-03T13:33:56;101741.75;;;3.00;100.00
68994;BME280;56054;50.968;5.816;2023-03-03T13:37:13;101735.84;;;3.17;100.00
68994;BME280;56054;50.968;5.816;2023-03-03T13:40:54;101736.84;;;3.26;100.00
68994;BME280;56054;50.968;5.816;2023-03-03T13:44:05;101725.69;;;3.26;100.00
68994;BME280;56054;50.968;5.816;2023-03-03T13:50:38;101732.31;;;3.24;100.00
68994;BME280;56054;50.968;5.816;2023-03-03T14:00:54;101717.72;;;3.47;100.00
68994;BME280;56054;50.968;5.816;2023-03-03T14:04:34;101723.13;;;3.41;100.00
68994;BME280;56054;50.968;5.816;2023-03-03T14:11:39;101727.13;;;3.55;100.00
68994;BME280;56054;50.968;5.816;2023-03-03T14:14:52;101716.84;;;3.55;100.00
68994;BME280;56054;50.968;5.816;2023-03-03T14:18:32;101718.44;;;3.46;100.00
68994;BME280;56054;50.968;5.816;2023-03-03T14:22:31;101720.59;;;3.66;100.00
68994;BME280;56054;50.968;5.816;2023-03-03T14:29:20;101713.09;;;3.76;100.00
68994;BME280;56054;50.968;5.816;2023-03-03T14:32:32;101712.22;;;3.84;99.29
68994;BME280;56054;50.968;5.816;2023-03-03T14:36:10;101717.53;;;4.11;99.22
68994;BME280;56054;50.968;5.816;2023-03-03T14:39:49;101702.31;;;4.21;98.64
68994;BME280;56054;50.968;5.816;2023-03-03T14:47:17;101695.69;;;3.98;99.54
68994;BME280;56054;50.968;5.816;2023-03-03T14:50:30;101698.47;;;4.08;98.99
68994;BME280;56054;50.968;5.816;2023-03-03T14:53:41;101690.97;;;3.94;99.61
68994;BME280;56054;50.968;5.816;2023-03-03T15:00:36;101682.66;;;3.97;99.54
68994;BME280;56054;50.968;5.816;2023-03-03T15:07:33;101687.22;;;3.99;99.90
68994;BME280;56054;50.968;5.816;2023-03-03T15:11:19;101679.84;;;4.02;99.88
68994;BME280;56054;50.968;5.816;2023-03-03T15:22:55;101669.22;;;3.99;100.00
68994;BME280;56054;50.968;5.816;2023-03-03T15:30:14;101669.28;;;4.08;99.85
68994;BME280;56054;50.968;5.816;2023-03-03T15:40:46;101659.00;;;4.17;99.71
68994;BME280;56054;50.968;5.816;2023-03-03T15:58:04;101662.56;;;4.35;98.58
68994;BME280;56054;50.968;5.816;2023-03-03T16:01:24;101652.41;;;4.27;99.16
68994;BME280;56054;50.968;5.816;2023-03-03T16:04:35;101657.69;;;4.29;99.50
68994;BME280;56054;50.968;5.816;2023-03-03T16:11:34;101665.88;;;4.76;97.72
68994;BME280;56054;50.968;5.816;2023-03-03T16:15:03;101665.50;;;4.46;98.03
68994;BME280;56054;50.968;5.816;2023-03-03T16:21:58;101662.00;;;4.46;98.87
68994;BME280;56054;50.968;5.816;2023-03-03T16:35:34;101664.31;;;4.18;100.00
68994;BME280;56054;50.968;5.816;2023-03-03T16:38:55;101654.38;;;4.30;100.00
68994;BME280;56054;50.968;5.816;2023-03-03T16:42:26;101661.25;;;4.47;99.10
68994;BME280;56054;50.968;5.816;2023-03-03T16:45:37;101657.13;;;4.40;99.51
68994;BME280;56054;50.968;5.816;2023-03-03T16:48:52;101655.16;;;4.38;99.36
68994;BME280;56054;50.968;5.816;2023-03-03T16:52:13;101662.13;;;5.07;96.41
68994;BME280;56054;50.968;5.816;2023-03-03T17:06:49;101679.97;;;4.04;100.00
68994;BME280;56054;50.968;5.816;2023-03-03T17:10:19;101675.72;;;3.96;100.00
68994;BME280;56054;50.968;5.816;2023-03-03T17:20:59;101688.78;;;3.81;100.00
68994;BME280;56054;50.968;5.816;2023-03-03T17:31:30;101695.88;;;3.59;100.00
68994;BME280;56054;50.968;5.816;2023-03-03T17:35:11;101700.53;;;3.55;100.00
68994;BME280;56054;50.968;5.816;2023-03-03T17:42:01;101703.69;;;3.52;100.00
68994;BME280;56054;50.968;5.816;2023-03-03T17:45:13;101714.19;;;3.62;100.00
68994;BME280;56054;50.968;5.816;2023-03-03T17:55:49;101716.28;;;3.58;100.00
68994;BME280;56054;50.968;5.816;2023-03-03T18:13:23;101718.06;;;3.18;100.00
68994;BME280;56054;50.968;5.816;2023-03-03T18:17:09;101722.19;;;3.81;100.00
68994;BME280;56054;50.968;5.816;2023-03-03T18:20:38;101714.19;;;3.22;100.00
68994;BME280;56054;50.968;5.816;2023-03-03T18:23:49;101717.72;;;2.99;100.00
68994;BME280;56054;50.968;5.816;2023-03-03T18:37:37;101720.72;;;2.95;100.00
68994;BME280;56054;50.968;5.816;2023-03-03T18:41:17;101723.22;;;2.64;100.00
68994;BME280;56054;50.968;5.816;2023-03-03T18:44:38;101729.78;;;2.46;100.00
68994;BME280;56054;50.968;5.816;2023-03-03T18:51:48;101732.13;;;2.51;100.00
68994;BME280;56054;50.968;5.816;2023-03-03T18:55:00;101740.09;;;2.39;100.00
68994;BME280;56054;50.968;5.816;2023-03-03T19:04:52;101739.94;;;2.37;100.00
68994;BME280;56054;50.968;5.816;2023-03-03T19:11:55;101735.38;;;2.11;100.00
68994;BME280;56054;50.968;5.816;2023-03-03T19:15:36;101738.44;;;2.16;100.00
68994;BME280;56054;50.968;5.816;2023-03-03T19:21:51;101742.63;;;2.23;100.00
68994;BME280;56054;50.968;5.816;2023-03-03T19:25:27;101744.44;;;2.24;100.00
68994;BME280;56054;50.968;5.816;2023-03-03T19:58:03;101754.00;;;2.41;100.00
68994;BME280;56054;50.968;5.816;2023-03-03T20:16:41;101761.03;;;2.34;100.00
68994;BME280;56054;50.968;5.816;2023-03-03T20:32:22;101772.31;;;2.67;100.00
68994;BME280;56054;50.968;5.816;2023-03-03T20:45:36;101772.75;;;2.78;100.00
68994;BME280;56054;50.968;5.816;2023-03-03T20:56:38;101779.47;;;2.85;100.00
68994;BME280;56054;50.968;5.816;2023-03-03T20:59:59;101780.22;;;2.84;100.00
68994;BME280;56054;50.968;5.816;2023-03-03T21:03:38;101783.38;;;2.82;100.00
68994;BME280;56054;50.968;5.816;2023-03-03T21:06:52;101785.94;;;2.82;100.00
68994;BME280;56054;50.968;5.816;2023-03-03T21:10:19;101789.91;;;2.87;100.00
68994;BME280;56054;50.968;5.816;2023-03-03T21:13:41;101790.78;;;2.71;100.00
68994;BME280;56054;50.968;5.816;2023-03-03T21:16:50;101795.94;;;2.87;100.00
68994;BME280;56054;50.968;5.816;2023-03-03T21:20:27;101796.50;;;2.69;100.00
68994;BME280;56054;50.968;5.816;2023-03-03T21:23:35;101813.44;;;2.60;100.00
68994;BME280;56054;50.968;5.816;2023-03-03T21:30:09;101801.00;;;2.78;100.00
68994;BME280;56054;50.968;5.816;2023-03-03T21:33:56;101803.09;;;2.67;100.00
68994;BME280;56054;50.968;5.816;2023-03-03T21:37:54;101800.44;;;2.81;100.00
68994;BME280;56054;50.968;5.816;2023-03-03T21:41:16;101799.41;;;2.72;100.00
68994;BME280;56054;50.968;5.816;2023-03-03T21:44:42;101805.41;;;2.56;100.00
68994;BME280;56054;50.968;5.816;2023-03-03T21:48:05;101797.06;;;2.66;100.00
68994;BME280;56054;50.968;5.816;2023-03-03T21:51:12;101788.50;;;2.82;100.00
68994;BME280;56054;50.968;5.816;2023-03-03T21:54:22;101796.19;;;2.82;100.00
68994;BME280;56054;50.968;5.816;2023-03-03T21:57:29;101787.94;;;2.84;100.00
68994;BME280;56054;50.968;5.816;2023-03-03T22:00:36;101789.59;;;2.84;100.00
68994;BME280;56054;50.968;5.816;2023-03-03T22:03:46;101782.84;;;2.77;100.00
68994;BME280;56054;50.968;5.816;2023-03-03T22:06:53;101789.88;;;2.71;100.00
68994;BME280;56054;50.968;5.816;2023-03-03T22:10:00;101782.34;;;2.72;100.00
68994;BME280;56054;50.968;5.816;2023-03-03T22:13:07;101787.97;;;2.77;100.00
68994;BME280;56054;50.968;5.816;2023-03-03T22:16:31;101780.47;;;2.78;100.00
68994;BME280;56054;50.968;5.816;2023-03-03T22:19:38;101787.31;;;2.71;100.00
68994;BME280;56054;50.968;5.816;2023-03-03T22:22:56;101789.06;;;2.79;100.00
68994;BME280;56054;50.968;5.816;2023-03-03T22:26:11;101788.63;;;2.90;100.00
68994;BME280;56054;50.968;5.816;2023-03-03T22:29:31;101790.22;;;2.74;100.00
68994;BME280;56054;50.968;5.816;2023-03-03T22:32:37;101781.75;;;2.75;100.00
68994;BME280;56054;50.968;5.816;2023-03-03T22:35:44;101788.44;;;2.89;100.00
68994;BME280;56054;50.968;5.816;2023-03-03T22:38:52;101784.84;;;2.79;100.00
68994;BME280;56054;50.968;5.816;2023-03-03T22:42:06;101787.78;;;2.98;100.00
68994;BME280;56054;50.968;5.816;2023-03-03T22:45:17;101785.69;;;2.87;100.00
68994;BME280;56054;50.968;5.816;2023-03-03T22:48:30;101781.44;;;2.88;100.00
68994;BME280;56054;50.968;5.816;2023-03-03T22:51:41;101786.44;;;2.86;100.00
68994;BME280;56054;50.968;5.816;2023-03-03T22:55:15;101785.34;;;2.84;100.00
68994;BME280;56054;50.968;5.816;2023-03-03T23:03:11;101785.19;;;2.83;100.00
68994;BME280;56054;50.968;5.816;2023-03-03T23:06:27;101785.94;;;2.82;100.00
68994;BME280;56054;50.968;5.816;2023-03-03T23:09:34;101779.72;;;2.79;100.00
68994;BME280;56054;50.968;5.816;2023-03-03T23:12:41;101787.84;;;2.91;100.00
68994;BME280;56054;50.968;5.816;2023-03-03T23:15:52;101785.22;;;2.98;100.00
68994;BME280;56054;50.968;5.816;2023-03-03T23:18:59;101781.81;;;2.91;100.00
68994;BME280;56054;50.968;5.816;2023-03-03T23:22:16;101788.19;;;2.94;100.00
68994;BME280;56054;50.968;5.816;2023-03-03T23:25:42;101786.94;;;2.91;100.00
68994;BME280;56054;50.968;5.816;2023-03-03T23:28:48;101787.09;;;2.92;100.00
68994;BME280;56054;50.968;5.816;2023-03-03T23:31:56;101793.81;;;2.99;100.00
68994;BME280;56054;50.968;5.816;2023-03-03T23:35:04;101784.81;;;3.03;100.00
68994;BME280;56054;50.968;5.816;2023-03-03T23:38:11;101773.78;;;3.04;100.00